createdAt,value
2022-08-16T00:01:02.927Z,25.33
2022-08-16T00:03:37.742Z,25.15
2022-08-16T00:06:04.602Z,24.40
2022-08-16T00:08:36.715Z,23.15
2022-08-16T00:11:06.781Z,23.08
2022-08-16T00:13:41.821Z,24.45
2022-08-16T00:17:01.479Z,24.85
2022-08-16T00:18:56.498Z,23.23
2022-08-16T00:21:23.648Z,26.20
2022-08-16T00:23:50.281Z,23.42
2022-08-16T00:26:34.593Z,21.38
2022-08-16T00:29:04.224Z,22.85
2022-08-16T00:31:58.600Z,23.90
2022-08-16T00:34:22.531Z,23.73
2022-08-16T00:37:09.713Z,20.00
2022-08-16T00:39:36.370Z,21.52
2022-08-16T00:42:10.310Z,21.25
2022-08-16T00:44:39.327Z,21.38
2022-08-16T00:47:16.216Z,21.05
2022-08-16T00:49:44.601Z,20.17
2022-08-16T00:52:29.643Z,21.40
2022-08-16T00:54:57.387Z,20.15
2022-08-16T00:57:24.226Z,19.58
2022-08-16T00:59:58.688Z,19.83
2022-08-16T01:02:31.678Z,20.52
2022-08-16T01:05:10.998Z,20.08
2022-08-16T01:07:51.721Z,18.02
2022-08-16T01:10:31.482Z,17.90
2022-08-16T01:13:12.248Z,19.05
2022-08-16T01:15:46.792Z,21.10
2022-08-16T01:18:38.942Z,17.88
2022-08-16T01:21:33.394Z,18.33
2022-08-16T01:24:51.599Z,15.70
2022-08-16T01:27:15.142Z,15.27
2022-08-16T01:30:02.144Z,16.52
2022-08-16T01:32:33.985Z,15.73
2022-08-16T01:35:06.608Z,16.83
2022-08-16T01:37:53.997Z,15.30
2022-08-16T01:40:25.570Z,15.88
2022-08-16T01:42:54.546Z,16.65
2022-08-16T01:45:22.341Z,15.32
2022-08-16T01:47:52.214Z,16.30
2022-08-16T01:50:41.966Z,16.25
2022-08-16T01:53:10.036Z,17.27
2022-08-16T01:55:40.703Z,18.67
2022-08-16T01:58:07.612Z,16.65
2022-08-16T02:00:37.467Z,16.52
2022-08-16T02:03:04.542Z,16.73
2022-08-16T02:05:31.553Z,16.35
2022-08-16T02:07:58.702Z,16.30
2022-08-16T02:10:26.387Z,17.33
2022-08-16T02:12:59.810Z,18.05
2022-08-16T02:15:29.197Z,16.75
2022-08-16T02:17:58.020Z,16.95
2022-08-16T02:20:27.913Z,17.35
2022-08-16T02:22:56.085Z,17.58
2022-08-16T02:25:23.286Z,17.33
2022-08-16T02:27:50.998Z,18.35
2022-08-16T02:30:35.999Z,17.48
2022-08-16T02:33:10.400Z,18.15
2022-08-16T02:35:49.672Z,19.55
2022-08-16T02:38:22.587Z,19.50
2022-08-16T02:40:49.401Z,20.17
2022-08-16T02:43:16.068Z,19.17
2022-08-16T02:45:42.886Z,18.90
2022-08-16T02:48:28.334Z,17.77
2022-08-16T02:51:06.601Z,19.73
2022-08-16T02:53:41.537Z,19.80
2022-08-16T02:56:11.216Z,19.60
2022-08-16T02:58:38.473Z,19.30
2022-08-16T03:01:07.181Z,18.42
2022-08-16T03:04:46.300Z,19.60
2022-08-16T03:06:39.619Z,18.77
2022-08-16T03:09:13.575Z,19.27
2022-08-16T03:11:42.163Z,19.80
2022-08-16T03:14:08.824Z,18.70
2022-08-16T03:16:58.496Z,20.45
2022-08-16T03:19:26.564Z,20.73
2022-08-16T03:22:13.150Z,19.60
2022-08-16T03:24:54.597Z,19.83
2022-08-16T03:27:24.251Z,19.42
2022-08-16T03:29:54.923Z,20.48
2022-08-16T03:32:21.653Z,19.23
2022-08-16T03:34:49.975Z,19.45
2022-08-16T03:37:16.918Z,20.58
2022-08-16T03:39:43.652Z,20.25
2022-08-16T03:42:10.595Z,20.60
2022-08-16T03:44:43.386Z,20.98
2022-08-16T03:47:11.688Z,20.42
2022-08-16T03:49:38.590Z,20.35
2022-08-16T03:52:06.040Z,21.35
2022-08-16T03:54:32.851Z,20.98
2022-08-16T03:57:03.187Z,20.25
2022-08-16T03:59:32.309Z,22.30
2022-08-16T04:02:00.855Z,21.83
2022-08-16T04:04:33.365Z,20.05
2022-08-16T04:07:02.839Z,20.85
2022-08-16T04:09:35.543Z,21.92
2022-08-16T04:12:10.592Z,21.80
2022-08-16T04:14:46.615Z,21.10
2022-08-16T04:17:15.434Z,21.25
2022-08-16T04:19:45.615Z,21.40
2022-08-16T04:22:17.335Z,21.98
2022-08-16T04:24:54.216Z,21.88
2022-08-16T04:27:21.844Z,21.55
2022-08-16T04:29:52.132Z,21.30
2022-08-16T04:32:19.779Z,20.80
2022-08-16T04:34:46.795Z,21.83
2022-08-16T04:37:14.181Z,21.88
2022-08-16T04:39:47.311Z,20.98
2022-08-16T04:42:25.773Z,21.60
2022-08-16T04:44:56.049Z,23.85
2022-08-16T04:47:25.379Z,22.08
2022-08-16T04:49:58.474Z,24.98
2022-08-16T04:52:33.328Z,24.10
2022-08-16T04:55:11.824Z,21.75
2022-08-16T04:57:39.597Z,24.50
2022-08-16T05:00:32.058Z,22.48
2022-08-16T05:03:01.201Z,22.88
2022-08-16T05:05:32.688Z,21.98
2022-08-16T05:08:00.560Z,22.13
2022-08-16T05:10:29.590Z,22.83
2022-08-16T05:13:01.481Z,21.30
2022-08-16T05:15:30.150Z,22.13
2022-08-16T05:17:59.836Z,23.02
2022-08-16T05:20:35.594Z,21.80
2022-08-16T05:23:13.632Z,22.27
2022-08-16T05:25:48.594Z,22.90
2022-08-16T05:28:17.419Z,22.15
2022-08-16T05:30:45.302Z,22.00
2022-08-16T05:33:18.242Z,23.13
2022-08-16T05:35:55.159Z,22.08
2022-08-16T05:38:32.828Z,22.25
2022-08-16T05:41:06.909Z,22.98
2022-08-16T05:43:43.702Z,22.20
2022-08-16T05:46:30.084Z,25.42
2022-08-16T05:49:05.443Z,21.27
2022-08-16T05:51:40.069Z,22.63
2022-08-16T05:54:11.211Z,21.38
2022-08-16T05:56:39.698Z,20.70
2022-08-16T05:59:06.841Z,23.25
2022-08-16T06:01:38.800Z,22.35
2022-08-16T06:04:12.532Z,21.70
2022-08-16T06:06:55.779Z,20.88
2022-08-16T06:09:25.137Z,19.95
2022-08-16T06:11:51.754Z,21.83
2022-08-16T06:14:18.743Z,21.65
2022-08-16T06:16:50.787Z,19.17
2022-08-16T06:19:18.312Z,20.23
2022-08-16T06:21:46.313Z,19.75
2022-08-16T06:24:53.595Z,19.85
2022-08-16T06:27:08.701Z,19.50
2022-08-16T06:29:35.309Z,18.95
2022-08-16T06:32:02.395Z,19.15
2022-08-16T06:34:57.113Z,17.27
2022-08-16T06:37:19.129Z,19.30
2022-08-16T06:39:49.805Z,18.65
2022-08-16T06:42:18.371Z,16.98
2022-08-16T06:44:45.881Z,16.58
2022-08-16T06:47:16.958Z,16.95
2022-08-16T06:49:54.052Z,16.88
2022-08-16T06:53:00.560Z,17.67
2022-08-16T06:55:13.019Z,15.80
2022-08-16T06:57:40.757Z,19.20
2022-08-16T07:00:24.140Z,14.90
2022-08-16T07:02:53.675Z,16.33
2022-08-16T07:05:39.739Z,16.17
2022-08-16T07:08:10.491Z,15.68
2022-08-16T07:10:38.710Z,15.80
2022-08-16T07:13:11.581Z,18.67
2022-08-16T07:15:50.421Z,15.60
2022-08-16T07:18:24.383Z,15.68
2022-08-16T07:20:53.381Z,16.60
2022-08-16T07:23:21.253Z,16.90
2022-08-16T07:26:05.429Z,16.58
2022-08-16T07:28:32.211Z,15.35
2022-08-16T07:31:01.951Z,16.45
2022-08-16T07:33:51.326Z,20.17
2022-08-16T07:36:22.194Z,17.38
2022-08-16T07:38:49.388Z,14.98
2022-08-16T07:41:16.988Z,13.95
2022-08-16T07:43:43.979Z,15.00
2022-08-16T07:46:39.080Z,14.20
2022-08-16T07:49:02.522Z,13.05
2022-08-16T07:51:34.706Z,13.45
2022-08-16T07:54:09.485Z,13.02
2022-08-16T07:56:37.666Z,16.33
2022-08-16T07:59:05.648Z,13.55
2022-08-16T08:01:33.305Z,14.18
2022-08-16T08:04:01.295Z,14.27
2022-08-16T08:06:30.100Z,13.50
2022-08-16T08:08:59.098Z,16.40
2022-08-16T08:11:28.311Z,15.13
2022-08-16T08:13:57.066Z,16.60
2022-08-16T08:16:30.554Z,15.70
2022-08-16T08:19:00.946Z,13.45
2022-08-16T08:21:59.106Z,12.50
2022-08-16T08:24:17.578Z,10.32
2022-08-16T08:26:44.803Z,12.23
2022-08-16T08:29:23.030Z,12.82
2022-08-16T08:31:52.318Z,14.85
2022-08-16T08:34:21.067Z,15.75
2022-08-16T08:36:48.869Z,13.40
2022-08-16T08:39:21.172Z,12.90
2022-08-16T08:41:49.600Z,13.27
2022-08-16T08:44:29.229Z,13.35
2022-08-16T08:46:59.738Z,13.00
2022-08-16T08:49:47.076Z,14.52
2022-08-16T08:52:34.557Z,12.90
2022-08-16T08:55:05.164Z,12.77
2022-08-16T08:57:38.103Z,13.55
2022-08-16T09:00:12.944Z,14.60
2022-08-16T09:02:42.466Z,13.20
2022-08-16T09:05:15.201Z,13.30
2022-08-16T09:08:01.734Z,13.30
2022-08-16T09:10:31.048Z,15.07
2022-08-16T09:12:58.699Z,12.43
2022-08-16T09:15:33.196Z,15.35
2022-08-16T09:18:02.079Z,12.63
2022-08-16T09:20:58.448Z,14.57
2022-08-16T09:23:31.361Z,12.90
2022-08-16T09:26:44.243Z,23.75
2022-08-16T09:29:15.409Z,12.02
2022-08-16T09:31:41.947Z,16.58
2022-08-16T09:34:09.224Z,12.57
2022-08-16T09:36:37.414Z,12.77
2022-08-16T09:39:16.117Z,13.50
2022-08-16T09:41:43.841Z,12.23
2022-08-16T09:45:10.922Z,12.35
2022-08-16T09:47:10.376Z,13.10
2022-08-16T09:49:37.541Z,11.27
2022-08-16T09:52:09.596Z,13.35
2022-08-16T09:54:37.844Z,12.98
2022-08-16T09:57:05.221Z,16.70
2022-08-16T09:59:38.449Z,12.68
2022-08-16T10:02:26.240Z,12.43
2022-08-16T10:04:55.077Z,13.77
2022-08-16T10:07:22.806Z,15.05
2022-08-16T10:09:53.583Z,14.25
2022-08-16T10:12:55.919Z,15.27
2022-08-16T10:15:23.980Z,11.60
2022-08-16T10:18:00.809Z,11.77
2022-08-16T10:20:35.255Z,12.40
2022-08-16T10:23:08.361Z,11.73
2022-08-16T10:27:00.727Z,11.38
2022-08-16T10:28:32.166Z,13.10
2022-08-16T10:31:08.459Z,11.05
2022-08-16T10:33:40.372Z,12.07
2022-08-16T10:36:08.866Z,13.20
2022-08-16T10:38:39.095Z,11.77
2022-08-16T10:41:10.449Z,18.85
2022-08-16T10:43:43.256Z,11.93
2022-08-16T10:46:39.246Z,9.65
2022-08-16T10:49:01.012Z,9.52
2022-08-16T10:51:34.403Z,9.57
2022-08-16T10:54:28.570Z,8.68
2022-08-16T10:57:00.401Z,11.25
2022-08-16T10:59:38.981Z,9.75
2022-08-16T11:02:58.320Z,10.43
2022-08-16T11:05:06.299Z,9.68
2022-08-16T11:07:53.128Z,9.55
2022-08-16T11:13:58.186Z,12.27
2022-08-16T11:16:26.599Z,9.20
2022-08-16T11:19:04.145Z,8.90
2022-08-16T11:21:33.957Z,9.48
2022-08-16T11:24:01.756Z,10.32
2022-08-16T11:26:29.671Z,10.05
2022-08-16T11:29:13.876Z,8.90
2022-08-16T11:31:43.419Z,9.25
2022-08-16T11:34:15.749Z,9.38
2022-08-16T11:36:53.690Z,8.52
2022-08-16T11:39:27.433Z,9.23
2022-08-16T11:41:55.282Z,11.63
2022-08-16T11:44:53.084Z,8.65
2022-08-16T11:47:09.534Z,11.80
2022-08-16T11:49:36.143Z,8.93
2022-08-16T11:52:02.754Z,11.30
2022-08-16T11:54:36.402Z,8.93
2022-08-16T11:57:04.616Z,12.23
2022-08-16T11:59:36.402Z,12.77
2022-08-16T12:02:31.143Z,10.30
2022-08-16T12:04:54.878Z,9.63
2022-08-16T12:07:23.527Z,16.23
2022-08-16T12:09:53.276Z,9.70
2022-08-16T12:12:20.484Z,10.98
2022-08-16T12:14:53.336Z,9.90
2022-08-16T12:17:26.767Z,8.85
2022-08-16T12:19:53.818Z,11.60
2022-08-16T12:22:20.951Z,9.35
2022-08-16T12:24:52.476Z,8.15
2022-08-16T12:27:22.986Z,9.15
2022-08-16T12:29:51.993Z,8.63
2022-08-16T12:32:35.681Z,8.75
2022-08-16T12:35:07.416Z,8.70
2022-08-16T12:37:34.978Z,9.15
2022-08-16T12:40:02.375Z,8.93
2022-08-16T12:42:34.390Z,8.95
2022-08-16T12:45:03.140Z,8.77
2022-08-16T12:47:48.263Z,8.45
2022-08-16T12:50:15.394Z,7.95
2022-08-16T12:52:48.539Z,8.68
2022-08-16T12:55:20.922Z,7.43
2022-08-16T12:57:58.165Z,7.63
2022-08-16T13:00:33.268Z,8.02
2022-08-16T13:03:02.005Z,7.75
2022-08-16T13:05:29.230Z,8.05
2022-08-16T13:07:58.127Z,8.38
2022-08-16T13:10:36.983Z,10.05
2022-08-16T13:13:07.213Z,8.15
2022-08-16T13:15:55.499Z,8.15
2022-08-16T13:18:32.335Z,9.05
2022-08-16T13:21:06.500Z,10.27
2022-08-16T13:23:34.110Z,11.77
2022-08-16T13:26:03.211Z,9.48
2022-08-16T13:28:29.821Z,8.35
2022-08-16T13:30:57.837Z,8.23
2022-08-16T13:33:36.811Z,9.27
2022-08-16T13:36:06.837Z,8.40
2022-08-16T13:38:49.315Z,7.40
2022-08-16T13:41:16.028Z,7.85
2022-08-16T13:43:43.093Z,7.20
2022-08-16T13:46:09.796Z,8.05
2022-08-16T13:48:43.996Z,8.60
2022-08-16T13:51:16.715Z,8.15
2022-08-16T13:53:45.699Z,7.75
2022-08-16T13:56:25.169Z,7.13
2022-08-16T13:58:54.307Z,7.70
2022-08-16T14:01:21.280Z,6.80
2022-08-16T14:03:47.874Z,8.43
2022-08-16T14:06:15.571Z,7.35
2022-08-16T14:08:50.227Z,11.25
2022-08-16T14:11:26.430Z,7.40
2022-08-16T14:13:55.832Z,6.82
2022-08-16T14:16:24.602Z,6.22
2022-08-16T14:19:01.000Z,9.18
2022-08-16T14:21:34.825Z,6.22
2022-08-16T14:24:03.270Z,9.10
2022-08-16T14:26:40.263Z,8.05
2022-08-16T14:29:07.036Z,7.10
2022-08-16T14:31:37.524Z,6.00
2022-08-16T14:34:06.948Z,6.25
2022-08-16T14:36:38.081Z,5.40
2022-08-16T14:39:08.758Z,5.97
2022-08-16T14:41:35.314Z,7.05
2022-08-16T14:44:04.456Z,5.90
2022-08-16T14:46:31.030Z,5.78
2022-08-16T14:48:57.634Z,7.50
2022-08-16T14:51:27.420Z,6.78
2022-08-16T14:53:54.236Z,6.22
2022-08-16T14:56:38.571Z,5.82
2022-08-16T14:59:08.508Z,6.28
2022-08-16T15:01:59.918Z,5.80
2022-08-16T15:04:32.254Z,6.22
2022-08-16T15:07:06.832Z,5.80
2022-08-16T15:09:44.467Z,9.52
2022-08-16T15:12:31.043Z,5.60
2022-08-16T15:15:01.612Z,6.15
2022-08-16T15:17:34.052Z,5.68
2022-08-16T15:20:09.310Z,6.30
2022-08-16T15:22:45.081Z,6.55
2022-08-16T15:25:20.033Z,6.70
2022-08-16T15:27:55.358Z,5.45
2022-08-16T15:30:48.108Z,6.88
2022-08-16T15:33:15.898Z,7.72
2022-08-16T15:35:44.023Z,5.95
2022-08-16T15:38:57.640Z,6.90
2022-08-16T15:40:59.400Z,5.90
2022-08-16T15:43:33.852Z,5.60
2022-08-16T15:46:35.820Z,5.45
2022-08-16T15:49:09.525Z,6.20
2022-08-16T15:51:37.014Z,7.07
2022-08-16T15:54:21.284Z,5.47
2022-08-16T15:56:55.102Z,5.57
2022-08-16T15:59:24.752Z,5.50
2022-08-16T16:01:55.966Z,7.55
2022-08-16T16:04:25.713Z,9.13
2022-08-16T16:06:55.090Z,5.68
2022-08-16T16:09:36.523Z,7.43
2022-08-16T16:12:41.531Z,6.40
2022-08-16T16:14:54.900Z,6.25
2022-08-16T16:17:21.656Z,5.72
2022-08-16T16:19:49.728Z,6.20
2022-08-16T16:22:21.581Z,5.53
2022-08-16T16:24:51.230Z,5.28
2022-08-16T16:27:18.151Z,7.00
2022-08-16T16:29:46.428Z,5.30
2022-08-16T16:32:30.510Z,5.57
2022-08-16T16:35:06.005Z,7.28
2022-08-16T16:37:33.226Z,5.20
2022-08-16T16:40:01.289Z,5.75
2022-08-16T16:42:31.368Z,5.93
2022-08-16T16:45:01.735Z,5.57
2022-08-16T16:47:29.996Z,7.90
2022-08-16T16:50:09.178Z,5.78
2022-08-16T16:52:44.792Z,6.35
2022-08-16T16:55:13.441Z,6.82
2022-08-16T16:58:00.180Z,6.68
2022-08-16T17:00:37.671Z,5.32
2022-08-16T17:03:16.936Z,6.45
2022-08-16T17:05:54.208Z,6.47
2022-08-16T17:08:27.136Z,6.57
2022-08-16T17:10:55.791Z,6.25
2022-08-16T17:13:23.328Z,5.28
2022-08-16T17:15:52.252Z,6.70
2022-08-16T17:19:15.099Z,5.75
2022-08-16T17:21:07.151Z,5.65
2022-08-16T17:23:59.034Z,6.30
2022-08-16T17:26:21.510Z,5.40
2022-08-16T17:28:59.572Z,5.10
2022-08-16T17:34:30.764Z,6.63
2022-08-16T17:36:59.566Z,5.43
2022-08-16T17:39:28.317Z,5.88
2022-08-16T17:39:29.542Z,7.55
2022-08-16T17:41:58.273Z,5.05
2022-08-16T17:44:25.257Z,5.90
2022-08-16T17:46:53.144Z,5.50
2022-08-16T17:49:20.790Z,5.55
2022-08-16T17:51:47.815Z,5.75
2022-08-16T17:54:18.425Z,5.95
2022-08-16T17:56:58.623Z,5.55
2022-08-16T17:59:27.730Z,8.60
2022-08-16T18:01:54.844Z,7.13
2022-08-16T18:04:48.429Z,5.68
2022-08-16T18:07:08.392Z,7.97
2022-08-16T18:09:36.909Z,7.80
2022-08-16T18:12:44.516Z,6.95
2022-08-16T18:15:08.231Z,5.25
2022-08-16T18:17:34.891Z,4.95
2022-08-16T18:20:01.653Z,5.78
2022-08-16T18:22:31.008Z,5.82
2022-08-16T18:24:58.514Z,5.90
2022-08-16T18:27:27.266Z,6.63
2022-08-16T18:29:54.983Z,5.55
2022-08-16T18:32:24.728Z,5.68
2022-08-16T18:34:54.410Z,7.00
2022-08-16T18:37:23.358Z,6.53
2022-08-16T18:39:50.137Z,8.75
2022-08-16T18:42:16.832Z,7.30
2022-08-16T18:44:44.127Z,7.20
2022-08-16T18:47:11.091Z,7.75
2022-08-16T18:49:38.135Z,8.50
2022-08-16T18:52:05.788Z,9.20
2022-08-16T18:54:33.646Z,9.13
2022-08-16T18:57:03.452Z,9.90
2022-08-16T18:59:33.939Z,9.35
2022-08-16T19:02:04.833Z,9.60
2022-08-16T19:04:55.938Z,9.00
2022-08-16T19:07:21.351Z,10.35
2022-08-16T19:09:47.983Z,9.65
2022-08-16T19:12:16.084Z,10.88
2022-08-16T19:14:45.257Z,11.77
2022-08-16T19:17:11.975Z,9.35
2022-08-16T19:19:38.567Z,11.48
2022-08-16T19:22:06.167Z,13.63
2022-08-16T19:24:32.913Z,12.13
2022-08-16T19:26:59.490Z,11.90
2022-08-16T19:29:28.915Z,12.98
2022-08-16T19:31:55.550Z,14.73
2022-08-16T19:34:22.197Z,13.20
2022-08-16T19:36:48.902Z,14.20
2022-08-16T19:39:16.063Z,13.05
2022-08-16T19:41:45.631Z,12.00
2022-08-16T19:44:13.083Z,12.68
2022-08-16T19:46:44.725Z,11.80
2022-08-16T19:49:15.959Z,12.50
2022-08-16T19:51:43.768Z,13.27
2022-08-16T19:54:10.461Z,11.15
2022-08-16T19:56:37.072Z,11.82
2022-08-16T19:59:21.047Z,11.75
2022-08-16T20:01:51.897Z,13.45
2022-08-16T20:04:19.643Z,12.65
2022-08-16T20:06:46.980Z,14.63
2022-08-16T20:09:15.375Z,14.57
2022-08-16T20:11:44.714Z,14.75
2022-08-16T20:14:12.010Z,13.85
2022-08-16T20:16:51.918Z,15.32
2022-08-16T20:19:19.225Z,16.33
2022-08-16T20:21:46.165Z,14.35
2022-08-16T20:24:32.574Z,16.27
2022-08-16T20:26:59.333Z,13.02
2022-08-16T20:29:27.420Z,12.38
2022-08-16T20:31:54.070Z,13.43
2022-08-16T20:34:20.681Z,13.27
2022-08-16T20:36:47.239Z,14.20
2022-08-16T20:39:13.866Z,17.08
2022-08-16T20:41:42.310Z,16.15
2022-08-16T20:44:10.681Z,13.25
2022-08-16T20:46:39.717Z,13.98
2022-08-16T20:49:09.135Z,13.52
2022-08-16T20:51:50.768Z,14.73
2022-08-16T20:54:18.770Z,13.18
2022-08-16T20:56:45.370Z,12.98
2022-08-16T20:59:12.003Z,19.20
2022-08-16T21:01:46.480Z,18.95
2022-08-16T21:04:18.871Z,17.05
2022-08-16T21:06:54.163Z,15.10
2022-08-16T21:09:23.430Z,16.80
2022-08-16T21:11:53.201Z,13.52
2022-08-16T21:14:19.906Z,14.68
2022-08-16T21:16:46.644Z,14.63
2022-08-16T21:19:13.518Z,14.90
2022-08-16T21:21:40.160Z,15.38
2022-08-16T21:24:06.811Z,15.20
2022-08-16T21:26:36.925Z,16.25
2022-08-16T21:29:07.780Z,14.38
2022-08-16T21:31:40.284Z,15.77
2022-08-16T21:34:08.100Z,17.50
2022-08-16T21:36:36.339Z,18.20
2022-08-16T21:39:05.768Z,13.57
2022-08-16T21:41:33.037Z,14.48
2022-08-16T21:43:59.689Z,16.13
2022-08-16T21:46:26.375Z,21.83
2022-08-16T21:48:52.986Z,16.25
2022-08-16T21:51:20.651Z,15.48
2022-08-16T21:53:47.340Z,15.10
2022-08-16T21:56:17.227Z,15.50
2022-08-16T21:58:53.285Z,14.50
2022-08-16T22:01:22.867Z,16.02
2022-08-16T22:04:09.529Z,15.07
2022-08-16T22:06:38.487Z,15.77
2022-08-16T22:09:06.530Z,15.02
2022-08-16T22:11:33.266Z,14.70
2022-08-16T22:14:00.800Z,17.02
2022-08-16T22:16:30.964Z,17.13
2022-08-16T22:18:57.738Z,14.32
2022-08-16T22:21:24.755Z,15.73
2022-08-16T22:23:57.268Z,15.25
2022-08-16T22:26:31.532Z,14.50
2022-08-16T22:29:00.489Z,16.48
2022-08-16T22:31:27.386Z,13.93
2022-08-16T22:33:54.042Z,13.68
2022-08-16T22:36:20.658Z,14.60
2022-08-16T22:38:54.379Z,15.18
2022-08-16T22:41:24.383Z,13.95
2022-08-16T22:43:51.008Z,13.38
2022-08-16T22:46:19.337Z,14.75
2022-08-16T22:48:46.089Z,13.25
2022-08-16T22:51:12.850Z,14.07
2022-08-16T22:53:39.590Z,15.18
2022-08-16T22:56:06.498Z,16.38
2022-08-16T22:58:36.988Z,17.02
2022-08-16T23:01:06.539Z,13.65
2022-08-16T23:03:33.327Z,14.80
2022-08-16T23:06:02.952Z,13.63
2022-08-16T23:08:39.915Z,14.27
2022-08-16T23:11:21.046Z,16.02
2022-08-16T23:13:53.041Z,14.25
2022-08-16T23:16:33.220Z,15.90
2022-08-16T23:19:10.576Z,14.15
2022-08-16T23:21:40.699Z,14.40
2022-08-16T23:24:08.433Z,13.00
2022-08-16T23:26:45.858Z,13.00
2022-08-16T23:29:19.774Z,13.82
2022-08-16T23:31:58.166Z,14.32
2022-08-16T23:34:26.814Z,14.90
2022-08-16T23:36:53.658Z,14.65
2022-08-16T23:39:20.279Z,13.68
2022-08-16T23:41:46.938Z,13.18
2022-08-16T23:44:57.520Z,14.18
2022-08-16T23:47:00.491Z,16.05
2022-08-16T23:50:00.316Z,14.63
2022-08-16T23:52:14.093Z,13.90
2022-08-16T23:54:40.714Z,14.25
2022-08-16T23:57:08.317Z,14.40
2022-08-16T23:59:43.764Z,17.67
